createdAt,value
2022-12-20T00:02:09.147Z,8.20
2022-12-20T00:04:36.471Z,8.40
2022-12-20T00:07:03.765Z,8.40
2022-12-20T00:09:30.679Z,8.40
2022-12-20T00:12:00.817Z,8.40
2022-12-20T00:14:27.731Z,8.50
2022-12-20T00:16:54.957Z,8.50
2022-12-20T00:19:21.881Z,8.30
2022-12-20T00:21:49.121Z,8.40
2022-12-20T00:24:19.374Z,8.10
2022-12-20T00:26:51.188Z,8.10
2022-12-20T00:29:19.426Z,8.00
2022-12-20T00:31:48.736Z,8.00
2022-12-20T00:34:15.801Z,8.20
2022-12-20T00:36:42.826Z,8.00
2022-12-20T00:39:10.791Z,7.90
2022-12-20T00:41:38.318Z,8.00
2022-12-20T00:44:05.394Z,8.00
2022-12-20T00:46:34.480Z,7.90
2022-12-20T00:49:01.827Z,7.90
2022-12-20T00:51:30.301Z,7.90
2022-12-20T00:53:57.230Z,7.90
2022-12-20T00:56:26.039Z,8.10
2022-12-20T00:58:54.380Z,8.00
2022-12-20T01:01:24.053Z,8.10
2022-12-20T01:03:53.747Z,8.10
2022-12-20T01:06:22.193Z,8.10
2022-12-20T01:08:49.156Z,8.10
2022-12-20T01:11:18.419Z,8.10
2022-12-20T01:13:48.407Z,8.10
2022-12-20T01:16:18.019Z,8.30
2022-12-20T01:18:45.441Z,8.10
2022-12-20T01:21:15.287Z,8.20
2022-12-20T01:23:42.760Z,8.00
2022-12-20T01:26:13.013Z,8.20
2022-12-20T01:28:43.071Z,8.20
2022-12-20T01:31:13.207Z,8.20
2022-12-20T01:33:40.304Z,8.20
2022-12-20T01:36:10.626Z,8.50
2022-12-20T01:38:39.413Z,8.20
2022-12-20T01:41:07.127Z,8.20
2022-12-20T01:43:50.635Z,8.10
2022-12-20T01:46:18.981Z,8.10
2022-12-20T01:48:52.502Z,8.10
2022-12-20T01:51:20.204Z,8.10
2022-12-20T01:53:51.577Z,8.00
2022-12-20T01:56:18.794Z,8.20
2022-12-20T01:58:48.855Z,8.20
2022-12-20T02:01:15.903Z,8.20
2022-12-20T02:03:45.528Z,8.20
2022-12-20T02:06:20.789Z,8.40
2022-12-20T02:08:51.367Z,8.40
2022-12-20T02:11:28.951Z,8.40
2022-12-20T02:14:04.687Z,8.40
2022-12-20T02:16:39.255Z,8.40
2022-12-20T02:19:21.144Z,8.40
2022-12-20T02:21:55.210Z,8.50
2022-12-20T02:24:54.320Z,8.50
2022-12-20T02:27:54.915Z,8.60
2022-12-20T02:30:27.548Z,8.70
2022-12-20T02:32:59.712Z,8.60
2022-12-20T02:35:31.127Z,8.70
2022-12-20T02:38:00.466Z,8.70
2022-12-20T02:40:31.579Z,8.70
2022-12-20T02:43:01.287Z,8.80
2022-12-20T02:45:33.934Z,8.60
2022-12-20T02:48:04.829Z,8.70
2022-12-20T02:50:36.854Z,8.70
2022-12-20T02:53:06.690Z,8.70
2022-12-20T02:55:41.903Z,8.70
2022-12-20T02:58:16.574Z,8.70
2022-12-20T03:00:49.004Z,8.70
2022-12-20T03:03:26.175Z,8.70
2022-12-20T03:05:55.398Z,8.80
2022-12-20T03:08:23.869Z,8.60
2022-12-20T03:10:53.214Z,8.60
2022-12-20T03:13:21.126Z,8.60
2022-12-20T03:15:49.658Z,8.60
2022-12-20T03:18:16.684Z,8.60
2022-12-20T03:20:43.857Z,8.60
2022-12-20T03:23:11.049Z,8.70
2022-12-20T03:25:37.999Z,8.60
2022-12-20T03:28:05.822Z,8.60
2022-12-20T03:30:32.920Z,8.70
2022-12-20T03:33:01.537Z,8.80
2022-12-20T03:35:28.509Z,8.80
2022-12-20T03:37:56.323Z,8.80
2022-12-20T03:40:23.339Z,8.80
2022-12-20T03:42:50.578Z,8.80
2022-12-20T03:45:18.088Z,8.90
2022-12-20T03:47:45.607Z,8.90
2022-12-20T03:50:13.918Z,9.00
2022-12-20T03:52:40.920Z,9.00
2022-12-20T03:55:09.695Z,8.90
2022-12-20T03:57:37.037Z,9.00
2022-12-20T04:00:04.875Z,9.00
2022-12-20T04:02:32.010Z,9.00
2022-12-20T04:04:59.092Z,9.10
2022-12-20T04:07:28.089Z,9.20
2022-12-20T04:09:55.038Z,9.20
2022-12-20T04:12:22.278Z,9.20
2022-12-20T04:14:49.163Z,9.20
2022-12-20T04:17:16.404Z,9.20
2022-12-20T04:19:43.321Z,9.30
2022-12-20T04:22:10.689Z,9.30
2022-12-20T04:24:38.954Z,9.40
2022-12-20T04:27:05.993Z,9.40
2022-12-20T04:29:32.872Z,9.40
2022-12-20T04:32:00.309Z,9.40
2022-12-20T04:34:27.479Z,9.40
2022-12-20T04:36:54.632Z,9.40
2022-12-20T04:39:21.540Z,9.50
2022-12-20T04:41:50.094Z,9.60
2022-12-20T04:44:17.506Z,9.60
2022-12-20T04:46:44.462Z,9.60
2022-12-20T04:49:11.906Z,9.70
2022-12-20T04:51:38.840Z,9.60
2022-12-20T04:54:06.277Z,9.70
2022-12-20T04:56:33.241Z,9.70
2022-12-20T04:59:03.166Z,9.90
2022-12-20T05:01:30.174Z,9.80
2022-12-20T05:03:57.627Z,9.80
2022-12-20T05:06:24.711Z,9.90
2022-12-20T05:08:52.059Z,10.00
2022-12-20T05:11:18.924Z,10.00
2022-12-20T05:13:45.925Z,10.00
2022-12-20T05:16:14.309Z,10.00
2022-12-20T05:18:48.250Z,10.00
2022-12-20T05:21:34.962Z,10.00
2022-12-20T05:24:20.714Z,10.00
2022-12-20T05:26:47.682Z,10.10
2022-12-20T05:29:16.282Z,10.00
2022-12-20T05:31:44.730Z,10.00
2022-12-20T05:34:12.233Z,10.00
2022-12-20T05:36:39.596Z,10.00
2022-12-20T05:39:06.493Z,10.00
2022-12-20T05:41:33.458Z,10.00
2022-12-20T05:44:00.793Z,10.00
2022-12-20T05:46:27.862Z,10.00
2022-12-20T05:48:56.583Z,10.00
2022-12-20T05:51:23.513Z,10.00
2022-12-20T05:53:51.106Z,10.20
2022-12-20T05:56:18.122Z,10.00
2022-12-20T05:58:45.452Z,10.00
2022-12-20T06:01:12.378Z,10.00
2022-12-20T06:03:41.082Z,9.90
2022-12-20T06:06:14.436Z,9.80
2022-12-20T06:08:42.351Z,10.00
2022-12-20T06:11:09.480Z,9.90
2022-12-20T06:13:39.761Z,9.90
2022-12-20T06:16:07.296Z,9.80
2022-12-20T06:18:34.600Z,9.80
2022-12-20T06:21:02.267Z,9.90
2022-12-20T06:23:30.934Z,9.90
2022-12-20T06:25:58.145Z,9.90
2022-12-20T06:28:25.515Z,9.90
2022-12-20T06:30:53.979Z,9.90
2022-12-20T06:33:21.545Z,9.90
2022-12-20T06:35:50.138Z,9.90
2022-12-20T06:38:17.862Z,9.90
2022-12-20T06:40:46.281Z,9.80
2022-12-20T06:43:43.970Z,9.80
2022-12-20T06:46:11.227Z,9.90
2022-12-20T06:48:38.718Z,9.90
2022-12-20T06:51:06.002Z,9.80
2022-12-20T06:53:33.077Z,9.80
2022-12-20T06:56:01.387Z,9.80
2022-12-20T06:58:28.651Z,9.90
2022-12-20T07:00:55.703Z,9.80
2022-12-20T07:03:23.016Z,9.90
2022-12-20T07:05:52.157Z,9.90
2022-12-20T07:08:19.815Z,9.80
2022-12-20T07:10:46.772Z,9.80
2022-12-20T07:13:15.801Z,9.80
2022-12-20T07:15:42.676Z,9.80
2022-12-20T07:18:10.793Z,9.70
2022-12-20T07:20:38.077Z,9.70
2022-12-20T07:23:04.972Z,9.60
2022-12-20T07:25:31.969Z,9.60
2022-12-20T07:27:59.439Z,9.60
2022-12-20T07:30:28.059Z,9.60
2022-12-20T07:32:55.062Z,9.60
2022-12-20T07:35:22.450Z,9.60
2022-12-20T07:37:49.379Z,9.60
2022-12-20T07:40:17.134Z,9.60
2022-12-20T07:42:48.534Z,9.60
2022-12-20T07:45:16.632Z,9.60
2022-12-20T07:47:44.925Z,9.60
2022-12-20T07:50:12.267Z,9.60
2022-12-20T07:52:41.243Z,9.70
2022-12-20T07:55:10.354Z,9.70
2022-12-20T07:57:40.325Z,9.70
2022-12-20T08:00:10.078Z,9.70
2022-12-20T08:02:40.865Z,9.80
2022-12-20T08:05:10.856Z,9.80
2022-12-20T08:07:41.527Z,9.90
2022-12-20T08:10:11.787Z,10.10
2022-12-20T08:12:40.247Z,10.10
2022-12-20T08:15:08.893Z,10.20
2022-12-20T08:17:35.879Z,10.00
2022-12-20T08:20:05.855Z,9.90
2022-12-20T08:22:34.442Z,9.80
2022-12-20T08:25:01.603Z,9.80
2022-12-20T08:27:28.590Z,9.70
2022-12-20T08:29:55.595Z,9.70
2022-12-20T08:32:22.550Z,9.80
2022-12-20T08:34:49.536Z,9.80
2022-12-20T08:37:16.657Z,9.70
2022-12-20T08:39:45.226Z,9.70
2022-12-20T08:42:12.764Z,9.80
2022-12-20T08:44:39.672Z,9.90
2022-12-20T08:47:06.662Z,10.00
2022-12-20T08:49:33.607Z,10.00
2022-12-20T08:52:01.014Z,10.00
2022-12-20T08:54:28.246Z,10.00
2022-12-20T08:56:56.920Z,9.90
2022-12-20T08:59:24.054Z,10.00
2022-12-20T09:01:51.107Z,10.00
2022-12-20T09:04:18.134Z,10.00
2022-12-20T09:06:45.348Z,10.00
2022-12-20T09:09:12.304Z,10.00
2022-12-20T09:11:39.686Z,10.10
2022-12-20T09:14:09.107Z,10.20
2022-12-20T09:16:36.496Z,10.20
2022-12-20T09:19:05.967Z,10.30
2022-12-20T09:21:34.717Z,10.30
2022-12-20T09:24:01.922Z,10.50
2022-12-20T09:26:29.044Z,10.40
2022-12-20T09:28:56.350Z,10.50
2022-12-20T09:31:27.441Z,10.40
2022-12-20T09:33:55.008Z,10.40
2022-12-20T09:36:24.257Z,10.50
2022-12-20T09:38:52.141Z,10.60
2022-12-20T09:41:29.093Z,10.60
2022-12-20T09:43:57.545Z,10.60
2022-12-20T09:46:27.741Z,10.60
2022-12-20T09:48:55.271Z,10.80
2022-12-20T09:51:56.036Z,10.80
2022-12-20T09:54:31.178Z,10.90
2022-12-20T09:57:03.256Z,10.90
2022-12-20T09:59:38.935Z,10.80
2022-12-20T10:02:35.455Z,10.80
2022-12-20T10:04:59.608Z,10.90
2022-12-20T10:07:39.131Z,10.90
2022-12-20T10:10:34.100Z,10.90
2022-12-20T10:13:10.904Z,10.90
2022-12-20T10:15:43.391Z,10.90
2022-12-20T10:18:23.917Z,11.10
2022-12-20T10:20:59.360Z,10.90
2022-12-20T10:23:34.374Z,11.00
2022-12-20T10:26:02.094Z,11.00
2022-12-20T10:28:31.319Z,11.10
2022-12-20T10:31:01.780Z,11.10
2022-12-20T10:33:31.599Z,11.10
2022-12-20T10:36:21.247Z,11.20
2022-12-20T10:38:52.194Z,11.20
2022-12-20T10:41:23.064Z,11.20
2022-12-20T10:43:56.363Z,11.30
2022-12-20T10:46:34.114Z,11.40
2022-12-20T10:49:22.983Z,11.30
2022-12-20T10:51:53.775Z,11.30
2022-12-20T10:54:24.952Z,11.30
2022-12-20T10:56:57.695Z,11.30
2022-12-20T10:59:32.462Z,11.30
2022-12-20T11:02:00.404Z,11.40
2022-12-20T11:04:32.768Z,11.40
2022-12-20T11:07:02.016Z,11.50
2022-12-20T11:09:32.232Z,11.70
2022-12-20T11:12:05.595Z,11.70
2022-12-20T11:14:39.411Z,11.80
2022-12-20T11:17:23.090Z,11.90
2022-12-20T11:20:21.457Z,11.80
2022-12-20T11:23:01.498Z,11.80
2022-12-20T11:25:44.702Z,11.80
2022-12-20T11:28:24.931Z,11.80
2022-12-20T11:31:01.803Z,11.90
2022-12-20T11:33:58.207Z,11.90
2022-12-20T11:36:43.793Z,11.90
2022-12-20T11:39:21.677Z,12.10
2022-12-20T11:41:59.850Z,12.00
2022-12-20T11:44:49.768Z,11.90
2022-12-20T11:47:44.634Z,11.90
2022-12-20T11:50:39.969Z,11.90
2022-12-20T11:53:17.820Z,11.90
2022-12-20T11:55:49.498Z,12.00
2022-12-20T11:58:24.059Z,12.00
2022-12-20T12:00:57.184Z,12.00
2022-12-20T12:03:31.513Z,11.90
2022-12-20T12:06:03.660Z,11.90
2022-12-20T12:08:40.194Z,11.80
2022-12-20T12:11:55.829Z,11.80
2022-12-20T12:14:05.296Z,11.90
2022-12-20T12:16:37.955Z,11.90
2022-12-20T12:19:09.730Z,11.90
2022-12-20T12:21:41.242Z,11.90
2022-12-20T12:24:20.073Z,11.90
2022-12-20T12:26:47.960Z,11.90
2022-12-20T12:29:17.248Z,11.90
2022-12-20T12:31:49.244Z,11.80
2022-12-20T12:34:30.523Z,11.80
2022-12-20T12:37:28.025Z,11.70
2022-12-20T12:40:21.731Z,11.80
2022-12-20T12:43:29.308Z,11.80
2022-12-20T12:45:58.608Z,11.70
2022-12-20T12:48:38.984Z,11.70
2022-12-20T12:51:07.060Z,11.70
2022-12-20T12:53:37.786Z,11.70
2022-12-20T12:56:46.805Z,11.80
2022-12-20T12:59:40.955Z,11.70
2022-12-20T13:02:27.549Z,11.80
2022-12-20T13:04:58.595Z,11.70
2022-12-20T13:07:28.422Z,11.80
2022-12-20T13:09:55.328Z,11.80
2022-12-20T13:12:58.876Z,11.70
2022-12-20T13:15:48.914Z,11.80
2022-12-20T13:18:27.661Z,11.80
2022-12-20T13:21:30.330Z,11.80
2022-12-20T13:24:36.715Z,11.80
2022-12-20T13:27:15.784Z,11.80
2022-12-20T13:29:56.192Z,11.70
2022-12-20T13:32:55.387Z,11.70
2022-12-20T13:35:31.358Z,11.80
2022-12-20T13:38:04.652Z,11.80
2022-12-20T13:40:38.457Z,11.80
2022-12-20T13:43:10.936Z,11.70
2022-12-20T13:45:43.307Z,11.80
2022-12-20T13:48:18.003Z,11.70
2022-12-20T13:50:51.094Z,11.80
2022-12-20T13:53:20.326Z,11.80
2022-12-20T13:55:48.811Z,11.80
2022-12-20T13:58:19.803Z,11.80
2022-12-20T14:00:48.957Z,11.80
2022-12-20T14:03:25.637Z,11.80
2022-12-20T14:05:58.518Z,11.80
2022-12-20T14:08:29.332Z,11.80
2022-12-20T14:11:06.677Z,11.80
2022-12-20T14:13:33.609Z,11.80
2022-12-20T14:16:14.919Z,11.90
2022-12-20T14:18:42.478Z,11.90
2022-12-20T14:21:10.297Z,11.90
2022-12-20T14:23:40.772Z,11.90
2022-12-20T14:26:12.133Z,11.80
2022-12-20T14:28:42.268Z,11.90
2022-12-20T14:31:24.689Z,11.90
2022-12-20T14:34:00.668Z,11.90
2022-12-20T14:36:27.899Z,11.80
2022-12-20T14:38:54.960Z,11.70
2022-12-20T14:41:34.389Z,11.70
2022-12-20T14:44:05.244Z,11.80
2022-12-20T14:46:35.321Z,11.70
2022-12-20T14:49:17.177Z,11.70
2022-12-20T14:51:44.481Z,11.70
2022-12-20T14:54:47.780Z,11.60
2022-12-20T14:57:12.272Z,11.70
2022-12-20T14:59:39.248Z,11.70
2022-12-20T15:02:33.305Z,11.60
2022-12-20T15:05:01.424Z,11.60
2022-12-20T15:07:31.438Z,11.60
2022-12-20T15:09:59.007Z,11.50
2022-12-20T15:12:26.510Z,11.50
2022-12-20T15:14:53.703Z,11.50
2022-12-20T15:17:21.236Z,11.50
2022-12-20T15:19:49.727Z,11.40
2022-12-20T15:22:19.413Z,11.50
2022-12-20T15:24:46.585Z,11.50
2022-12-20T15:27:14.911Z,11.50
2022-12-20T15:29:42.294Z,11.30
2022-12-20T15:32:17.474Z,11.30
2022-12-20T15:34:44.832Z,11.30
2022-12-20T15:37:18.428Z,11.30
2022-12-20T15:39:46.086Z,11.30
2022-12-20T15:42:17.272Z,11.30
2022-12-20T15:44:44.625Z,11.30
2022-12-20T15:47:13.497Z,11.30
2022-12-20T15:49:46.089Z,11.20
2022-12-20T15:52:20.163Z,11.20
2022-12-20T15:54:47.032Z,11.20
2022-12-20T15:57:14.904Z,11.20
2022-12-20T16:00:00.376Z,11.20
2022-12-20T16:02:29.905Z,11.20
2022-12-20T16:04:57.722Z,11.10
2022-12-20T16:07:27.269Z,11.10
2022-12-20T16:09:54.297Z,11.30
2022-12-20T16:12:27.245Z,11.10
2022-12-20T16:14:55.217Z,11.20
2022-12-20T16:17:22.419Z,11.10
2022-12-20T16:19:50.609Z,11.20
2022-12-20T16:22:19.663Z,11.10
2022-12-20T16:24:48.866Z,11.10
2022-12-20T16:27:15.912Z,11.20
2022-12-20T16:29:42.993Z,11.20
2022-12-20T16:32:14.461Z,11.20
2022-12-20T16:34:41.371Z,11.20
2022-12-20T16:37:08.280Z,11.10
2022-12-20T16:39:35.559Z,11.20
2022-12-20T16:42:04.665Z,11.20
2022-12-20T16:44:31.689Z,11.20
2022-12-20T16:46:58.803Z,11.20
2022-12-20T16:49:25.899Z,11.20
2022-12-20T16:51:52.858Z,11.20
2022-12-20T16:54:23.183Z,11.20
2022-12-20T16:56:55.396Z,11.20
2022-12-20T16:59:25.486Z,11.30
2022-12-20T17:01:54.534Z,11.40
2022-12-20T17:04:24.060Z,11.40
2022-12-20T17:06:51.314Z,11.40
2022-12-20T17:09:18.675Z,11.40
2022-12-20T17:11:45.893Z,11.30
2022-12-20T17:14:13.610Z,11.30
2022-12-20T17:16:42.203Z,11.20
2022-12-20T17:19:10.782Z,11.10
2022-12-20T17:24:26.057Z,11.20
2022-12-20T17:26:53.061Z,11.10
2022-12-20T17:29:20.854Z,11.10
2022-12-20T17:31:49.426Z,11.10
2022-12-20T17:34:19.199Z,11.20
2022-12-20T17:36:46.993Z,11.00
2022-12-20T17:39:14.205Z,11.00
2022-12-20T17:41:42.770Z,11.00
2022-12-20T17:44:17.544Z,10.90
2022-12-20T17:46:44.704Z,10.90
2022-12-20T17:49:13.137Z,10.90
2022-12-20T17:51:40.307Z,10.80
2022-12-20T17:54:14.091Z,10.90
2022-12-20T17:56:40.876Z,10.80
2022-12-20T17:59:11.329Z,10.80
2022-12-20T18:01:38.523Z,10.90
2022-12-20T18:04:07.791Z,10.70
2022-12-20T18:06:37.786Z,10.60
2022-12-20T18:09:08.113Z,10.50
2022-12-20T18:11:34.964Z,10.40
2022-12-20T18:14:04.060Z,10.40
2022-12-20T18:16:35.280Z,10.30
2022-12-20T18:19:02.757Z,10.30
2022-12-20T18:21:30.096Z,10.20
2022-12-20T18:23:58.313Z,10.10
2022-12-20T18:26:27.162Z,10.10
2022-12-20T18:28:56.422Z,10.00
2022-12-20T18:31:25.558Z,10.00
2022-12-20T18:33:57.760Z,9.90
2022-12-20T18:36:27.448Z,9.90
2022-12-20T18:38:54.920Z,9.90
2022-12-20T18:41:25.061Z,9.80
2022-12-20T18:43:52.875Z,9.80
2022-12-20T18:46:22.155Z,9.80
2022-12-20T18:48:51.167Z,9.80
2022-12-20T18:51:20.290Z,9.80
2022-12-20T18:53:48.970Z,9.80
2022-12-20T18:56:18.625Z,10.10
2022-12-20T18:58:47.951Z,9.90
2022-12-20T19:01:16.407Z,10.00
2022-12-20T19:03:44.223Z,9.90
2022-12-20T19:06:12.391Z,9.90
2022-12-20T19:08:40.141Z,9.90
2022-12-20T19:11:09.090Z,9.90
2022-12-20T19:13:39.247Z,9.90
2022-12-20T19:16:10.509Z,9.90
2022-12-20T19:18:37.536Z,10.00
2022-12-20T19:21:07.521Z,10.00
2022-12-20T19:23:35.848Z,10.00
2022-12-20T19:26:05.621Z,10.00
2022-12-20T19:28:33.730Z,10.00
2022-12-20T19:31:07.781Z,10.00
2022-12-20T19:33:36.886Z,9.90
2022-12-20T19:36:08.686Z,9.90
2022-12-20T19:38:36.019Z,9.90
2022-12-20T19:41:03.032Z,9.90
2022-12-20T19:43:30.490Z,9.80
2022-12-20T19:45:57.763Z,9.80
2022-12-20T19:48:26.151Z,9.80
2022-12-20T19:51:01.140Z,9.90
2022-12-20T19:53:28.482Z,9.80
2022-12-20T19:55:55.326Z,9.90
2022-12-20T19:58:22.407Z,10.00
2022-12-20T20:00:49.932Z,10.10
2022-12-20T20:03:17.727Z,10.10
2022-12-20T20:05:46.067Z,10.10
2022-12-20T20:08:13.006Z,10.30
2022-12-20T20:10:39.841Z,10.20
2022-12-20T20:13:07.341Z,10.30
2022-12-20T20:15:34.307Z,10.30
2022-12-20T20:18:01.727Z,10.40
2022-12-20T20:20:29.481Z,10.40
2022-12-20T20:22:57.979Z,10.50
2022-12-20T20:25:24.776Z,10.50
2022-12-20T20:27:51.611Z,10.50
2022-12-20T20:30:18.495Z,10.50
2022-12-20T20:32:45.381Z,10.50
2022-12-20T20:35:12.259Z,10.50
2022-12-20T20:37:39.864Z,10.60
2022-12-20T20:40:09.479Z,10.60
2022-12-20T20:42:36.673Z,10.60
2022-12-20T20:45:03.883Z,10.50
2022-12-20T20:47:31.336Z,10.50
2022-12-20T20:49:58.195Z,10.60
2022-12-20T20:52:25.383Z,10.60
2022-12-20T20:54:52.170Z,10.60
2022-12-20T20:57:20.690Z,10.60
2022-12-20T20:59:47.615Z,10.50
2022-12-20T21:02:15.331Z,10.60
2022-12-20T21:04:42.300Z,10.60
2022-12-20T21:07:09.388Z,10.60
2022-12-20T21:09:36.264Z,10.60
2022-12-20T21:12:04.149Z,10.60
2022-12-20T21:15:10.735Z,10.60
2022-12-20T21:17:19.619Z,10.60
2022-12-20T21:19:46.384Z,10.60
2022-12-20T21:22:13.219Z,10.60
2022-12-20T21:24:40.218Z,10.50
2022-12-20T21:27:07.068Z,10.50
2022-12-20T21:29:35.218Z,10.50
2022-12-20T21:32:02.429Z,10.50
2022-12-20T21:34:29.687Z,10.50
2022-12-20T21:36:56.841Z,10.60
2022-12-20T21:39:24.341Z,10.60
2022-12-20T21:41:54.721Z,10.60
2022-12-20T21:44:23.851Z,10.60
2022-12-20T21:46:52.528Z,10.50
2022-12-20T21:49:19.441Z,10.50
2022-12-20T21:51:46.402Z,10.50
2022-12-20T21:54:13.433Z,10.50
2022-12-20T21:56:40.727Z,10.50
2022-12-20T21:59:09.949Z,10.60
2022-12-20T22:01:36.993Z,10.60
2022-12-20T22:04:06.766Z,10.50
2022-12-20T22:06:34.984Z,10.50
2022-12-20T22:09:06.585Z,10.50
2022-12-20T22:11:34.473Z,10.50
2022-12-20T22:14:01.726Z,10.70
2022-12-20T22:16:31.717Z,10.60
2022-12-20T22:18:59.661Z,10.50
2022-12-20T22:21:29.957Z,10.50
2022-12-20T22:23:58.204Z,10.50
2022-12-20T22:26:28.436Z,10.40
2022-12-20T22:28:57.078Z,10.40
2022-12-20T22:31:25.981Z,10.40
2022-12-20T22:33:53.714Z,10.40
2022-12-20T22:36:21.807Z,10.30
2022-12-20T22:38:50.943Z,10.30
2022-12-20T22:41:19.902Z,10.20
2022-12-20T22:43:47.366Z,10.20
2022-12-20T22:46:16.305Z,10.20
2022-12-20T22:48:44.211Z,10.20
2022-12-20T22:51:13.229Z,10.20
2022-12-20T22:53:40.623Z,10.20
2022-12-20T22:56:10.363Z,10.20
2022-12-20T22:58:37.724Z,10.20
2022-12-20T23:01:08.752Z,10.30
2022-12-20T23:03:37.071Z,10.10
2022-12-20T23:06:06.262Z,10.10
2022-12-20T23:08:35.577Z,10.10
2022-12-20T23:11:21.969Z,10.10
2022-12-20T23:14:08.809Z,10.10
2022-12-20T23:16:37.741Z,10.10
2022-12-20T23:19:04.637Z,10.30
2022-12-20T23:21:49.955Z,10.30
2022-12-20T23:24:16.835Z,10.30
2022-12-20T23:26:44.662Z,10.30
2022-12-20T23:29:14.249Z,10.20
2022-12-20T23:31:41.747Z,10.10
2022-12-20T23:34:08.693Z,10.10
2022-12-20T23:36:35.956Z,10.10
2022-12-20T23:39:03.840Z,10.10
2022-12-20T23:41:31.059Z,10.00
2022-12-20T23:43:57.948Z,10.00
2022-12-20T23:46:26.762Z,10.00
2022-12-20T23:48:53.917Z,9.90
2022-12-20T23:51:22.164Z,9.90
2022-12-20T23:53:51.145Z,9.80
2022-12-20T23:56:19.926Z,9.80
2022-12-20T23:58:51.040Z,9.80
